sensor_id;sensor_type;location;lat;lon;timestamp;P1;durP1;ratioP1;P2;durP2;ratioP2
41309;SDS011;27057;51.438;-0.010;2023-04-03T00:00:56;6.20;;;2.40;;
41309;SDS011;27057;51.438;-0.010;2023-04-03T00:03:23;6.72;;;1.90;;
41309;SDS011;27057;51.438;-0.010;2023-04-03T00:05:51;15.98;;;2.72;;
41309;SDS011;27057;51.438;-0.010;2023-04-03T00:08:19;27.67;;;2.78;;
41309;SDS011;27057;51.438;-0.010;2023-04-03T00:10:46;15.27;;;3.08;;
41309;SDS011;27057;51.438;-0.010;2023-04-03T00:13:14;10.40;;;2.40;;
41309;SDS011;27057;51.438;-0.010;2023-04-03T00:15:42;23.38;;;2.75;;
41309;SDS011;27057;51.438;-0.010;2023-04-03T00:18:10;14.43;;;2.67;;
41309;SDS011;27057;51.438;-0.010;2023-04-03T00:20:37;20.73;;;2.75;;
41309;SDS011;27057;51.438;-0.010;2023-04-03T00:23:05;13.60;;;2.67;;
41309;SDS011;27057;51.438;-0.010;2023-04-03T00:25:33;11.45;;;2.75;;
41309;SDS011;27057;51.438;-0.010;2023-04-03T00:28:01;11.50;;;2.30;;
41309;SDS011;27057;51.438;-0.010;2023-04-03T00:30:29;12.70;;;2.47;;
41309;SDS011;27057;51.438;-0.010;2023-04-03T00:32:57;15.13;;;2.63;;
41309;SDS011;27057;51.438;-0.010;2023-04-03T00:35:25;18.42;;;3.05;;
41309;SDS011;27057;51.438;-0.010;2023-04-03T00:37:53;5.93;;;2.45;;
41309;SDS011;27057;51.438;-0.010;2023-04-03T00:40:22;23.33;;;3.20;;
41309;SDS011;27057;51.438;-0.010;2023-04-03T00:42:59;15.27;;;2.20;;
41309;SDS011;27057;51.438;-0.010;2023-04-03T00:45:34;19.70;;;2.55;;
41309;SDS011;27057;51.438;-0.010;2023-04-03T00:48:05;20.30;;;3.45;;
41309;SDS011;27057;51.438;-0.010;2023-04-03T00:50:36;18.55;;;2.97;;
41309;SDS011;27057;51.438;-0.010;2023-04-03T00:53:07;15.32;;;2.75;;
41309;SDS011;27057;51.438;-0.010;2023-04-03T00:55:38;12.25;;;2.50;;
41309;SDS011;27057;51.438;-0.010;2023-04-03T00:58:06;14.70;;;2.10;;
41309;SDS011;27057;51.438;-0.010;2023-04-03T01:00:35;14.43;;;2.45;;
41309;SDS011;27057;51.438;-0.010;2023-04-03T01:03:05;11.27;;;2.25;;
41309;SDS011;27057;51.438;-0.010;2023-04-03T01:05:34;26.15;;;2.78;;
41309;SDS011;27057;51.438;-0.010;2023-04-03T01:08:02;10.43;;;2.25;;
41309;SDS011;27057;51.438;-0.010;2023-04-03T01:10:29;15.38;;;2.72;;
41309;SDS011;27057;51.438;-0.010;2023-04-03T01:12:57;25.45;;;3.10;;
41309;SDS011;27057;51.438;-0.010;2023-04-03T01:15:27;14.13;;;2.53;;
41309;SDS011;27057;51.438;-0.010;2023-04-03T01:18:01;16.55;;;2.72;;
41309;SDS011;27057;51.438;-0.010;2023-04-03T01:25:43;19.48;;;2.55;;
41309;SDS011;27057;51.438;-0.010;2023-04-03T01:28:21;17.90;;;2.60;;
41309;SDS011;27057;51.438;-0.010;2023-04-03T01:33:46;12.30;;;2.47;;
41309;SDS011;27057;51.438;-0.010;2023-04-03T01:36:18;14.73;;;2.58;;
41309;SDS011;27057;51.438;-0.010;2023-04-03T01:38:47;13.52;;;2.63;;
41309;SDS011;27057;51.438;-0.010;2023-04-03T01:41:15;13.52;;;2.67;;
41309;SDS011;27057;51.438;-0.010;2023-04-03T01:43:45;15.48;;;2.75;;
41309;SDS011;27057;51.438;-0.010;2023-04-03T01:46:13;15.95;;;2.45;;
41309;SDS011;27057;51.438;-0.010;2023-04-03T01:48:41;12.02;;;3.10;;
41309;SDS011;27057;51.438;-0.010;2023-04-03T01:51:09;13.43;;;2.42;;
41309;SDS011;27057;51.438;-0.010;2023-04-03T01:53:37;35.20;;;3.13;;
41309;SDS011;27057;51.438;-0.010;2023-04-03T01:56:04;21.55;;;3.10;;
41309;SDS011;27057;51.438;-0.010;2023-04-03T01:58:32;23.20;;;3.15;;
41309;SDS011;27057;51.438;-0.010;2023-04-03T02:01:00;13.90;;;2.72;;
41309;SDS011;27057;51.438;-0.010;2023-04-03T02:03:29;18.23;;;3.08;;
41309;SDS011;27057;51.438;-0.010;2023-04-03T02:05:58;19.20;;;2.28;;
41309;SDS011;27057;51.438;-0.010;2023-04-03T02:08:25;16.38;;;3.17;;
41309;SDS011;27057;51.438;-0.010;2023-04-03T02:10:53;20.95;;;2.80;;
41309;SDS011;27057;51.438;-0.010;2023-04-03T02:13:21;12.77;;;2.25;;
41309;SDS011;27057;51.438;-0.010;2023-04-03T02:15:48;8.93;;;1.83;;
41309;SDS011;27057;51.438;-0.010;2023-04-03T02:18:16;12.77;;;2.58;;
41309;SDS011;27057;51.438;-0.010;2023-04-03T02:20:44;8.93;;;2.42;;
41309;SDS011;27057;51.438;-0.010;2023-04-03T02:23:12;17.63;;;2.30;;
41309;SDS011;27057;51.438;-0.010;2023-04-03T02:25:40;17.30;;;2.40;;
41309;SDS011;27057;51.438;-0.010;2023-04-03T02:28:07;9.60;;;2.85;;
41309;SDS011;27057;51.438;-0.010;2023-04-03T02:30:35;13.32;;;2.75;;
41309;SDS011;27057;51.438;-0.010;2023-04-03T02:33:04;21.73;;;3.53;;
41309;SDS011;27057;51.438;-0.010;2023-04-03T02:35:31;22.80;;;2.88;;
41309;SDS011;27057;51.438;-0.010;2023-04-03T02:37:58;15.60;;;3.05;;
41309;SDS011;27057;51.438;-0.010;2023-04-03T02:40:26;13.55;;;2.13;;
41309;SDS011;27057;51.438;-0.010;2023-04-03T02:42:53;14.73;;;2.60;;
41309;SDS011;27057;51.438;-0.010;2023-04-03T02:45:23;7.25;;;2.00;;
41309;SDS011;27057;51.438;-0.010;2023-04-03T02:47:50;8.73;;;2.38;;
41309;SDS011;27057;51.438;-0.010;2023-04-03T02:50:18;19.67;;;3.13;;
41309;SDS011;27057;51.438;-0.010;2023-04-03T02:52:45;12.35;;;2.72;;
41309;SDS011;27057;51.438;-0.010;2023-04-03T02:55:13;14.10;;;3.00;;
41309;SDS011;27057;51.438;-0.010;2023-04-03T02:57:44;7.93;;;2.22;;
41309;SDS011;27057;51.438;-0.010;2023-04-03T03:00:12;16.38;;;2.50;;
41309;SDS011;27057;51.438;-0.010;2023-04-03T03:02:41;14.90;;;3.08;;
41309;SDS011;27057;51.438;-0.010;2023-04-03T03:05:08;14.57;;;3.42;;
41309;SDS011;27057;51.438;-0.010;2023-04-03T03:07:36;16.55;;;3.42;;
41309;SDS011;27057;51.438;-0.010;2023-04-03T03:10:03;10.35;;;3.00;;
41309;SDS011;27057;51.438;-0.010;2023-04-03T03:12:31;20.95;;;3.17;;
41309;SDS011;27057;51.438;-0.010;2023-04-03T03:14:59;10.00;;;2.35;;
41309;SDS011;27057;51.438;-0.010;2023-04-03T03:17:27;11.95;;;2.50;;
41309;SDS011;27057;51.438;-0.010;2023-04-03T03:19:55;14.02;;;2.33;;
41309;SDS011;27057;51.438;-0.010;2023-04-03T03:22:22;10.32;;;2.45;;
41309;SDS011;27057;51.438;-0.010;2023-04-03T03:24:50;8.63;;;3.10;;
41309;SDS011;27057;51.438;-0.010;2023-04-03T03:27:17;13.70;;;2.20;;
41309;SDS011;27057;51.438;-0.010;2023-04-03T03:29:44;10.32;;;2.45;;
41309;SDS011;27057;51.438;-0.010;2023-04-03T03:32:13;17.02;;;2.10;;
41309;SDS011;27057;51.438;-0.010;2023-04-03T03:34:40;16.90;;;2.58;;
41309;SDS011;27057;51.438;-0.010;2023-04-03T03:37:07;17.70;;;2.78;;
41309;SDS011;27057;51.438;-0.010;2023-04-03T03:39:35;18.52;;;2.70;;
41309;SDS011;27057;51.438;-0.010;2023-04-03T03:42:03;5.40;;;2.60;;
41309;SDS011;27057;51.438;-0.010;2023-04-03T03:44:30;18.30;;;2.63;;
41309;SDS011;27057;51.438;-0.010;2023-04-03T03:46:58;18.88;;;3.08;;
41309;SDS011;27057;51.438;-0.010;2023-04-03T03:49:28;12.30;;;2.97;;
41309;SDS011;27057;51.438;-0.010;2023-04-03T03:51:55;19.45;;;2.35;;
41309;SDS011;27057;51.438;-0.010;2023-04-03T03:54:23;14.88;;;3.05;;
41309;SDS011;27057;51.438;-0.010;2023-04-03T03:56:51;29.15;;;3.58;;
41309;SDS011;27057;51.438;-0.010;2023-04-03T03:59:18;10.10;;;2.78;;
41309;SDS011;27057;51.438;-0.010;2023-04-03T04:01:50;11.27;;;2.40;;
41309;SDS011;27057;51.438;-0.010;2023-04-03T04:04:17;34.15;;;3.70;;
41309;SDS011;27057;51.438;-0.010;2023-04-03T04:06:46;13.00;;;3.63;;
41309;SDS011;27057;51.438;-0.010;2023-04-03T04:09:13;18.63;;;2.85;;
41309;SDS011;27057;51.438;-0.010;2023-04-03T04:11:40;13.85;;;2.63;;
41309;SDS011;27057;51.438;-0.010;2023-04-03T04:14:11;13.73;;;2.92;;
41309;SDS011;27057;51.438;-0.010;2023-04-03T04:16:41;17.13;;;3.67;;
41309;SDS011;27057;51.438;-0.010;2023-04-03T04:19:14;16.20;;;2.85;;
41309;SDS011;27057;51.438;-0.010;2023-04-03T04:21:44;14.57;;;2.63;;
41309;SDS011;27057;51.438;-0.010;2023-04-03T04:24:12;12.02;;;2.67;;
41309;SDS011;27057;51.438;-0.010;2023-04-03T04:26:39;20.77;;;2.40;;
41309;SDS011;27057;51.438;-0.010;2023-04-03T04:29:10;13.38;;;2.65;;
41309;SDS011;27057;51.438;-0.010;2023-04-03T04:31:38;11.23;;;2.75;;
41309;SDS011;27057;51.438;-0.010;2023-04-03T04:34:06;13.52;;;3.50;;
41309;SDS011;27057;51.438;-0.010;2023-04-03T04:36:36;16.67;;;2.90;;
41309;SDS011;27057;51.438;-0.010;2023-04-03T04:39:03;19.30;;;2.97;;
41309;SDS011;27057;51.438;-0.010;2023-04-03T04:41:31;15.38;;;2.85;;
41309;SDS011;27057;51.438;-0.010;2023-04-03T04:44:00;16.23;;;3.33;;
41309;SDS011;27057;51.438;-0.010;2023-04-03T04:46:28;9.18;;;3.00;;
41309;SDS011;27057;51.438;-0.010;2023-04-03T04:48:58;15.70;;;3.05;;
41309;SDS011;27057;51.438;-0.010;2023-04-03T04:51:28;16.55;;;3.90;;
41309;SDS011;27057;51.438;-0.010;2023-04-03T04:54:07;14.70;;;3.75;;
41309;SDS011;27057;51.438;-0.010;2023-04-03T04:56:36;14.05;;;2.90;;
41309;SDS011;27057;51.438;-0.010;2023-04-03T04:59:03;28.75;;;3.50;;
41309;SDS011;27057;51.438;-0.010;2023-04-03T05:01:32;9.35;;;2.72;;
41309;SDS011;27057;51.438;-0.010;2023-04-03T05:04:05;17.88;;;3.28;;
41309;SDS011;27057;51.438;-0.010;2023-04-03T05:06:33;9.10;;;2.95;;
41309;SDS011;27057;51.438;-0.010;2023-04-03T05:09:05;17.35;;;4.00;;
41309;SDS011;27057;51.438;-0.010;2023-04-03T05:11:33;16.92;;;3.92;;
41309;SDS011;27057;51.438;-0.010;2023-04-03T05:14:01;23.88;;;3.42;;
41309;SDS011;27057;51.438;-0.010;2023-04-03T05:16:29;14.20;;;3.35;;
41309;SDS011;27057;51.438;-0.010;2023-04-03T05:18:57;17.95;;;3.75;;
41309;SDS011;27057;51.438;-0.010;2023-04-03T05:21:24;16.20;;;4.30;;
41309;SDS011;27057;51.438;-0.010;2023-04-03T05:23:53;15.60;;;3.95;;
41309;SDS011;27057;51.438;-0.010;2023-04-03T05:26:21;13.48;;;3.15;;
41309;SDS011;27057;51.438;-0.010;2023-04-03T05:28:50;17.77;;;3.38;;
41309;SDS011;27057;51.438;-0.010;2023-04-03T05:31:18;21.40;;;2.88;;
41309;SDS011;27057;51.438;-0.010;2023-04-03T05:33:47;12.23;;;3.45;;
41309;SDS011;27057;51.438;-0.010;2023-04-03T05:36:17;16.52;;;3.17;;
41309;SDS011;27057;51.438;-0.010;2023-04-03T05:38:49;11.85;;;3.15;;
41309;SDS011;27057;51.438;-0.010;2023-04-03T05:41:18;33.90;;;4.00;;
41309;SDS011;27057;51.438;-0.010;2023-04-03T05:43:48;24.95;;;3.97;;
41309;SDS011;27057;51.438;-0.010;2023-04-03T05:46:17;14.38;;;3.53;;
41309;SDS011;27057;51.438;-0.010;2023-04-03T05:48:51;16.40;;;3.33;;
41309;SDS011;27057;51.438;-0.010;2023-04-03T05:51:22;18.70;;;3.88;;
41309;SDS011;27057;51.438;-0.010;2023-04-03T05:56:45;29.27;;;8.75;;
41309;SDS011;27057;51.438;-0.010;2023-04-03T05:59:13;19.10;;;3.50;;
41309;SDS011;27057;51.438;-0.010;2023-04-03T06:01:41;9.90;;;3.30;;
41309;SDS011;27057;51.438;-0.010;2023-04-03T06:04:08;22.48;;;3.55;;
41309;SDS011;27057;51.438;-0.010;2023-04-03T06:09:16;13.85;;;3.55;;
41309;SDS011;27057;51.438;-0.010;2023-04-03T06:11:44;15.48;;;4.03;;
41309;SDS011;27057;51.438;-0.010;2023-04-03T06:14:12;22.38;;;3.55;;
41309;SDS011;27057;51.438;-0.010;2023-04-03T06:16:40;14.43;;;4.13;;
41309;SDS011;27057;51.438;-0.010;2023-04-03T06:19:08;17.13;;;3.45;;
41309;SDS011;27057;51.438;-0.010;2023-04-03T06:21:39;14.23;;;3.72;;
41309;SDS011;27057;51.438;-0.010;2023-04-03T06:24:11;18.10;;;3.60;;
41309;SDS011;27057;51.438;-0.010;2023-04-03T06:26:41;21.42;;;4.63;;
41309;SDS011;27057;51.438;-0.010;2023-04-03T06:29:09;22.80;;;3.78;;
41309;SDS011;27057;51.438;-0.010;2023-04-03T06:31:36;22.27;;;4.05;;
41309;SDS011;27057;51.438;-0.010;2023-04-03T06:34:04;22.05;;;3.97;;
41309;SDS011;27057;51.438;-0.010;2023-04-03T06:36:35;15.45;;;4.22;;
41309;SDS011;27057;51.438;-0.010;2023-04-03T06:39:03;17.55;;;4.22;;
41309;SDS011;27057;51.438;-0.010;2023-04-03T06:41:30;25.13;;;4.45;;
41309;SDS011;27057;51.438;-0.010;2023-04-03T06:43:58;19.20;;;4.03;;
41309;SDS011;27057;51.438;-0.010;2023-04-03T06:46:26;15.48;;;3.90;;
41309;SDS011;27057;51.438;-0.010;2023-04-03T06:48:54;13.95;;;3.58;;
41309;SDS011;27057;51.438;-0.010;2023-04-03T06:51:25;12.23;;;3.67;;
41309;SDS011;27057;51.438;-0.010;2023-04-03T06:53:55;14.02;;;3.50;;
41309;SDS011;27057;51.438;-0.010;2023-04-03T06:56:25;14.57;;;3.45;;
41309;SDS011;27057;51.438;-0.010;2023-04-03T06:58:53;16.83;;;3.88;;
41309;SDS011;27057;51.438;-0.010;2023-04-03T07:01:24;15.35;;;3.90;;
41309;SDS011;27057;51.438;-0.010;2023-04-03T07:03:54;15.80;;;4.28;;
41309;SDS011;27057;51.438;-0.010;2023-04-03T07:06:22;22.90;;;3.88;;
41309;SDS011;27057;51.438;-0.010;2023-04-03T07:08:53;12.77;;;3.90;;
41309;SDS011;27057;51.438;-0.010;2023-04-03T07:11:21;22.55;;;4.05;;
41309;SDS011;27057;51.438;-0.010;2023-04-03T07:13:49;17.73;;;3.95;;
41309;SDS011;27057;51.438;-0.010;2023-04-03T07:16:17;22.27;;;3.78;;
41309;SDS011;27057;51.438;-0.010;2023-04-03T07:18:45;18.35;;;4.10;;
41309;SDS011;27057;51.438;-0.010;2023-04-03T07:21:13;17.08;;;3.63;;
41309;SDS011;27057;51.438;-0.010;2023-04-03T07:23:41;16.25;;;4.40;;
41309;SDS011;27057;51.438;-0.010;2023-04-03T07:26:08;18.20;;;4.28;;
41309;SDS011;27057;51.438;-0.010;2023-04-03T07:28:36;26.10;;;4.80;;
41309;SDS011;27057;51.438;-0.010;2023-04-03T07:31:04;19.83;;;4.63;;
41309;SDS011;27057;51.438;-0.010;2023-04-03T07:33:35;23.65;;;4.57;;
41309;SDS011;27057;51.438;-0.010;2023-04-03T07:36:04;14.43;;;4.03;;
41309;SDS011;27057;51.438;-0.010;2023-04-03T07:38:34;24.63;;;5.32;;
41309;SDS011;27057;51.438;-0.010;2023-04-03T07:41:03;24.45;;;4.85;;
41309;SDS011;27057;51.438;-0.010;2023-04-03T07:43:31;9.55;;;4.18;;
41309;SDS011;27057;51.438;-0.010;2023-04-03T07:45:58;20.95;;;5.30;;
41309;SDS011;27057;51.438;-0.010;2023-04-03T07:48:26;19.40;;;4.60;;
41309;SDS011;27057;51.438;-0.010;2023-04-03T07:50:53;15.48;;;4.25;;
41309;SDS011;27057;51.438;-0.010;2023-04-03T07:53:21;19.52;;;3.63;;
41309;SDS011;27057;51.438;-0.010;2023-04-03T07:55:49;16.25;;;4.78;;
41309;SDS011;27057;51.438;-0.010;2023-04-03T07:58:18;24.13;;;3.78;;
41309;SDS011;27057;51.438;-0.010;2023-04-03T08:00:45;19.75;;;4.18;;
41309;SDS011;27057;51.438;-0.010;2023-04-03T08:03:14;19.95;;;4.75;;
41309;SDS011;27057;51.438;-0.010;2023-04-03T08:05:44;19.05;;;4.70;;
41309;SDS011;27057;51.438;-0.010;2023-04-03T08:08:15;27.27;;;4.63;;
41309;SDS011;27057;51.438;-0.010;2023-04-03T08:10:51;15.52;;;4.60;;
41309;SDS011;27057;51.438;-0.010;2023-04-03T08:13:21;23.30;;;5.07;;
41309;SDS011;27057;51.438;-0.010;2023-04-03T08:15:49;25.80;;;5.60;;
41309;SDS011;27057;51.438;-0.010;2023-04-03T08:18:17;23.52;;;4.90;;
41309;SDS011;27057;51.438;-0.010;2023-04-03T08:20:48;23.13;;;5.47;;
41309;SDS011;27057;51.438;-0.010;2023-04-03T08:23:15;21.77;;;5.20;;
41309;SDS011;27057;51.438;-0.010;2023-04-03T08:25:45;26.98;;;5.25;;
41309;SDS011;27057;51.438;-0.010;2023-04-03T08:28:13;40.75;;;5.43;;
41309;SDS011;27057;51.438;-0.010;2023-04-03T08:30:41;20.75;;;5.13;;
41309;SDS011;27057;51.438;-0.010;2023-04-03T08:33:09;24.00;;;4.93;;
41309;SDS011;27057;51.438;-0.010;2023-04-03T08:35:38;16.95;;;5.75;;
41309;SDS011;27057;51.438;-0.010;2023-04-03T08:38:07;23.48;;;5.20;;
41309;SDS011;27057;51.438;-0.010;2023-04-03T08:40:35;35.40;;;5.43;;
41309;SDS011;27057;51.438;-0.010;2023-04-03T08:46:03;22.80;;;5.97;;
41309;SDS011;27057;51.438;-0.010;2023-04-03T08:48:34;16.95;;;6.60;;
41309;SDS011;27057;51.438;-0.010;2023-04-03T08:51:13;33.08;;;5.50;;
41309;SDS011;27057;51.438;-0.010;2023-04-03T08:53:45;34.42;;;6.25;;
41309;SDS011;27057;51.438;-0.010;2023-04-03T08:59:24;22.15;;;6.05;;
41309;SDS011;27057;51.438;-0.010;2023-04-03T09:01:57;24.58;;;4.95;;
41309;SDS011;27057;51.438;-0.010;2023-04-03T09:04:31;23.70;;;6.05;;
41309;SDS011;27057;51.438;-0.010;2023-04-03T09:07:08;20.15;;;6.43;;
41309;SDS011;27057;51.438;-0.010;2023-04-03T09:09:43;20.08;;;6.28;;
41309;SDS011;27057;51.438;-0.010;2023-04-03T09:12:21;24.52;;;7.07;;
41309;SDS011;27057;51.438;-0.010;2023-04-03T09:17:41;22.58;;;6.90;;
41309;SDS011;27057;51.438;-0.010;2023-04-03T09:20:14;23.33;;;6.50;;
41309;SDS011;27057;51.438;-0.010;2023-04-03T09:22:47;22.27;;;7.25;;
41309;SDS011;27057;51.438;-0.010;2023-04-03T09:25:23;16.02;;;5.90;;
41309;SDS011;27057;51.438;-0.010;2023-04-03T09:28:04;19.38;;;7.10;;
41309;SDS011;27057;51.438;-0.010;2023-04-03T09:30:36;26.63;;;5.65;;
41309;SDS011;27057;51.438;-0.010;2023-04-03T09:33:08;15.77;;;6.65;;
41309;SDS011;27057;51.438;-0.010;2023-04-03T09:35:40;23.55;;;7.82;;
41309;SDS011;27057;51.438;-0.010;2023-04-03T09:41:04;26.25;;;6.63;;
41309;SDS011;27057;51.438;-0.010;2023-04-03T09:43:52;20.25;;;6.53;;
41309;SDS011;27057;51.438;-0.010;2023-04-03T09:49:36;20.65;;;5.20;;
41309;SDS011;27057;51.438;-0.010;2023-04-03T09:52:17;15.63;;;5.88;;
41309;SDS011;27057;51.438;-0.010;2023-04-03T09:55:06;21.65;;;6.53;;
41309;SDS011;27057;51.438;-0.010;2023-04-03T09:57:35;19.20;;;5.85;;
41309;SDS011;27057;51.438;-0.010;2023-04-03T10:00:03;21.27;;;6.35;;
41309;SDS011;27057;51.438;-0.010;2023-04-03T10:05:04;15.02;;;5.45;;
41309;SDS011;27057;51.438;-0.010;2023-04-03T10:07:52;14.98;;;5.32;;
41309;SDS011;27057;51.438;-0.010;2023-04-03T10:10:35;18.42;;;5.75;;
41309;SDS011;27057;51.438;-0.010;2023-04-03T10:13:06;15.50;;;5.57;;
41309;SDS011;27057;51.438;-0.010;2023-04-03T10:21:23;12.20;;;4.97;;
41309;SDS011;27057;51.438;-0.010;2023-04-03T10:24:28;9.77;;;4.75;;
41309;SDS011;27057;51.438;-0.010;2023-04-03T10:27:13;13.35;;;4.70;;
41309;SDS011;27057;51.438;-0.010;2023-04-03T10:35:16;15.77;;;4.95;;
41309;SDS011;27057;51.438;-0.010;2023-04-03T10:43:45;18.90;;;5.53;;
41309;SDS011;27057;51.438;-0.010;2023-04-03T10:46:23;9.90;;;4.50;;
41309;SDS011;27057;51.438;-0.010;2023-04-03T10:51:44;21.42;;;5.18;;
41309;SDS011;27057;51.438;-0.010;2023-04-03T10:56:54;12.02;;;4.70;;
41309;SDS011;27057;51.438;-0.010;2023-04-03T10:59:40;9.90;;;3.67;;
41309;SDS011;27057;51.438;-0.010;2023-04-03T11:02:28;10.60;;;3.97;;
41309;SDS011;27057;51.438;-0.010;2023-04-03T11:05:47;9.48;;;4.22;;
41309;SDS011;27057;51.438;-0.010;2023-04-03T11:08:26;16.83;;;4.00;;
41309;SDS011;27057;51.438;-0.010;2023-04-03T11:11:41;10.10;;;4.57;;
41309;SDS011;27057;51.438;-0.010;2023-04-03T11:16:06;7.90;;;3.80;;
41309;SDS011;27057;51.438;-0.010;2023-04-03T11:23:47;8.30;;;3.83;;
41309;SDS011;27057;51.438;-0.010;2023-04-03T11:27:04;7.45;;;4.25;;
41309;SDS011;27057;51.438;-0.010;2023-04-03T11:29:47;10.90;;;3.90;;
41309;SDS011;27057;51.438;-0.010;2023-04-03T11:36:52;7.65;;;4.00;;
41309;SDS011;27057;51.438;-0.010;2023-04-03T11:50:51;14.40;;;3.63;;
41309;SDS011;27057;51.438;-0.010;2023-04-03T11:53:49;11.60;;;3.85;;
41309;SDS011;27057;51.438;-0.010;2023-04-03T11:56:29;7.60;;;3.35;;
41309;SDS011;27057;51.438;-0.010;2023-04-03T12:01:55;6.68;;;3.38;;
41309;SDS011;27057;51.438;-0.010;2023-04-03T12:04:29;10.38;;;3.13;;
41309;SDS011;27057;51.438;-0.010;2023-04-03T12:07:34;7.82;;;2.85;;
41309;SDS011;27057;51.438;-0.010;2023-04-03T12:09:56;5.38;;;2.60;;
41309;SDS011;27057;51.438;-0.010;2023-04-03T12:17:52;6.22;;;3.10;;
41309;SDS011;27057;51.438;-0.010;2023-04-03T12:23:27;5.10;;;2.55;;
41309;SDS011;27057;51.438;-0.010;2023-04-03T12:26:03;10.55;;;3.55;;
41309;SDS011;27057;51.438;-0.010;2023-04-03T12:28:37;9.95;;;2.92;;
41309;SDS011;27057;51.438;-0.010;2023-04-03T12:31:08;9.13;;;3.13;;
41309;SDS011;27057;51.438;-0.010;2023-04-03T12:33:56;6.03;;;2.40;;
41309;SDS011;27057;51.438;-0.010;2023-04-03T12:36:30;10.05;;;3.30;;
41309;SDS011;27057;51.438;-0.010;2023-04-03T12:39:23;3.20;;;2.17;;
41309;SDS011;27057;51.438;-0.010;2023-04-03T12:42:22;7.00;;;2.53;;
41309;SDS011;27057;51.438;-0.010;2023-04-03T12:45:20;7.57;;;2.40;;
41309;SDS011;27057;51.438;-0.010;2023-04-03T12:47:49;7.50;;;2.80;;
41309;SDS011;27057;51.438;-0.010;2023-04-03T12:52:55;5.90;;;2.30;;
41309;SDS011;27057;51.438;-0.010;2023-04-03T12:55:30;10.20;;;2.70;;
41309;SDS011;27057;51.438;-0.010;2023-04-03T12:58:13;12.18;;;1.90;;
41309;SDS011;27057;51.438;-0.010;2023-04-03T13:00:43;6.25;;;2.97;;
41309;SDS011;27057;51.438;-0.010;2023-04-03T13:03:24;5.95;;;2.60;;
41309;SDS011;27057;51.438;-0.010;2023-04-03T13:05:55;6.30;;;2.65;;
41309;SDS011;27057;51.438;-0.010;2023-04-03T13:08:26;7.35;;;2.83;;
41309;SDS011;27057;51.438;-0.010;2023-04-03T13:13:29;4.43;;;2.35;;
41309;SDS011;27057;51.438;-0.010;2023-04-03T13:15:57;8.32;;;3.20;;
41309;SDS011;27057;51.438;-0.010;2023-04-03T13:18:32;5.57;;;2.22;;
41309;SDS011;27057;51.438;-0.010;2023-04-03T13:21:08;9.85;;;2.50;;
41309;SDS011;27057;51.438;-0.010;2023-04-03T13:23:44;4.68;;;2.28;;
41309;SDS011;27057;51.438;-0.010;2023-04-03T13:26:19;5.53;;;2.65;;
41309;SDS011;27057;51.438;-0.010;2023-04-03T13:28:49;3.88;;;2.05;;
41309;SDS011;27057;51.438;-0.010;2023-04-03T13:31:22;6.55;;;2.55;;
41309;SDS011;27057;51.438;-0.010;2023-04-03T13:33:59;3.90;;;2.35;;
41309;SDS011;27057;51.438;-0.010;2023-04-03T13:36:34;8.13;;;2.55;;
41309;SDS011;27057;51.438;-0.010;2023-04-03T13:41:43;6.20;;;2.78;;
41309;SDS011;27057;51.438;-0.010;2023-04-03T13:46:49;12.23;;;3.00;;
41309;SDS011;27057;51.438;-0.010;2023-04-03T13:49:42;5.35;;;2.45;;
41309;SDS011;27057;51.438;-0.010;2023-04-03T13:52:21;8.95;;;2.30;;
41309;SDS011;27057;51.438;-0.010;2023-04-03T13:54:59;6.60;;;2.88;;
41309;SDS011;27057;51.438;-0.010;2023-04-03T13:57:31;6.40;;;2.35;;
41309;SDS011;27057;51.438;-0.010;2023-04-03T13:59:59;8.45;;;2.97;;
41309;SDS011;27057;51.438;-0.010;2023-04-03T14:02:32;7.70;;;3.38;;
41309;SDS011;27057;51.438;-0.010;2023-04-03T14:05:01;15.60;;;2.95;;
41309;SDS011;27057;51.438;-0.010;2023-04-03T14:07:30;8.55;;;2.90;;
41309;SDS011;27057;51.438;-0.010;2023-04-03T14:09:58;11.27;;;3.17;;
41309;SDS011;27057;51.438;-0.010;2023-04-03T14:12:27;8.98;;;2.97;;
41309;SDS011;27057;51.438;-0.010;2023-04-03T14:15:00;7.45;;;2.45;;
41309;SDS011;27057;51.438;-0.010;2023-04-03T14:17:28;8.45;;;2.80;;
41309;SDS011;27057;51.438;-0.010;2023-04-03T14:19:57;6.28;;;2.72;;
41309;SDS011;27057;51.438;-0.010;2023-04-03T14:22:26;7.10;;;2.72;;
41309;SDS011;27057;51.438;-0.010;2023-04-03T14:24:57;3.78;;;2.58;;
41309;SDS011;27057;51.438;-0.010;2023-04-03T14:27:29;10.95;;;3.67;;
41309;SDS011;27057;51.438;-0.010;2023-04-03T14:30:02;8.50;;;2.28;;
41309;SDS011;27057;51.438;-0.010;2023-04-03T14:32:32;5.93;;;2.10;;
41309;SDS011;27057;51.438;-0.010;2023-04-03T14:34:59;5.55;;;2.05;;
41309;SDS011;27057;51.438;-0.010;2023-04-03T14:37:28;9.00;;;3.60;;
41309;SDS011;27057;51.438;-0.010;2023-04-03T14:39:58;5.28;;;2.33;;
41309;SDS011;27057;51.438;-0.010;2023-04-03T14:42:31;4.25;;;2.10;;
41309;SDS011;27057;51.438;-0.010;2023-04-03T14:45:02;6.43;;;2.67;;
41309;SDS011;27057;51.438;-0.010;2023-04-03T14:47:33;9.73;;;2.55;;
41309;SDS011;27057;51.438;-0.010;2023-04-03T14:50:04;8.20;;;3.13;;
41309;SDS011;27057;51.438;-0.010;2023-04-03T14:52:34;7.60;;;2.75;;
41309;SDS011;27057;51.438;-0.010;2023-04-03T14:55:05;7.90;;;2.95;;
41309;SDS011;27057;51.438;-0.010;2023-04-03T14:57:33;8.65;;;3.38;;
41309;SDS011;27057;51.438;-0.010;2023-04-03T15:00:02;9.25;;;3.15;;
41309;SDS011;27057;51.438;-0.010;2023-04-03T15:02:32;7.90;;;3.03;;
41309;SDS011;27057;51.438;-0.010;2023-04-03T15:05:02;9.55;;;3.55;;
41309;SDS011;27057;51.438;-0.010;2023-04-03T15:07:39;8.20;;;3.05;;
41309;SDS011;27057;51.438;-0.010;2023-04-03T15:15:19;9.65;;;3.22;;
41309;SDS011;27057;51.438;-0.010;2023-04-03T15:17:50;6.45;;;3.13;;
41309;SDS011;27057;51.438;-0.010;2023-04-03T15:20:22;5.88;;;2.40;;
41309;SDS011;27057;51.438;-0.010;2023-04-03T15:22:52;5.88;;;2.15;;
41309;SDS011;27057;51.438;-0.010;2023-04-03T15:25:20;5.68;;;2.42;;
41309;SDS011;27057;51.438;-0.010;2023-04-03T15:27:48;5.88;;;2.60;;
41309;SDS011;27057;51.438;-0.010;2023-04-03T15:30:17;7.35;;;2.45;;
41309;SDS011;27057;51.438;-0.010;2023-04-03T15:32:45;6.35;;;2.60;;
41309;SDS011;27057;51.438;-0.010;2023-04-03T15:35:13;10.13;;;2.70;;
41309;SDS011;27057;51.438;-0.010;2023-04-03T15:37:41;8.30;;;2.45;;
41309;SDS011;27057;51.438;-0.010;2023-04-03T15:40:09;9.63;;;3.00;;
41309;SDS011;27057;51.438;-0.010;2023-04-03T15:42:37;8.93;;;3.08;;
41309;SDS011;27057;51.438;-0.010;2023-04-03T15:45:05;8.13;;;2.90;;
41309;SDS011;27057;51.438;-0.010;2023-04-03T15:47:33;7.38;;;2.95;;
41309;SDS011;27057;51.438;-0.010;2023-04-03T15:50:01;8.10;;;2.72;;
41309;SDS011;27057;51.438;-0.010;2023-04-03T15:52:33;7.95;;;3.22;;
41309;SDS011;27057;51.438;-0.010;2023-04-03T15:55:01;13.80;;;3.22;;
41309;SDS011;27057;51.438;-0.010;2023-04-03T15:57:29;8.60;;;2.90;;
41309;SDS011;27057;51.438;-0.010;2023-04-03T15:59:57;11.50;;;2.58;;
41309;SDS011;27057;51.438;-0.010;2023-04-03T16:02:24;13.52;;;2.78;;
41309;SDS011;27057;51.438;-0.010;2023-04-03T16:04:54;7.30;;;2.35;;
41309;SDS011;27057;51.438;-0.010;2023-04-03T16:07:22;14.75;;;3.08;;
41309;SDS011;27057;51.438;-0.010;2023-04-03T16:09:49;12.93;;;3.63;;
41309;SDS011;27057;51.438;-0.010;2023-04-03T16:12:17;7.55;;;1.88;;
41309;SDS011;27057;51.438;-0.010;2023-04-03T16:14:44;6.32;;;2.67;;
41309;SDS011;27057;51.438;-0.010;2023-04-03T16:17:11;6.30;;;1.70;;
41309;SDS011;27057;51.438;-0.010;2023-04-03T16:19:39;8.57;;;2.90;;
41309;SDS011;27057;51.438;-0.010;2023-04-03T16:22:06;5.30;;;1.52;;
41309;SDS011;27057;51.438;-0.010;2023-04-03T16:24:34;4.35;;;1.27;;
41309;SDS011;27057;51.438;-0.010;2023-04-03T16:27:02;4.78;;;1.75;;
41309;SDS011;27057;51.438;-0.010;2023-04-03T16:29:29;3.60;;;1.92;;
41309;SDS011;27057;51.438;-0.010;2023-04-03T16:31:57;7.47;;;2.20;;